createdAt,value
2022-08-14T00:05:07.220Z,956.72
2022-08-14T00:10:52.868Z,956.67
2022-08-14T00:16:11.121Z,956.59
2022-08-14T00:21:45.300Z,956.55
2022-08-14T00:27:17.121Z,956.55
2022-08-14T00:38:21.338Z,956.37
2022-08-14T00:43:53.156Z,956.35
2022-08-14T00:49:24.685Z,956.27
2022-08-14T00:54:57.753Z,956.23
2022-08-14T01:00:37.099Z,956.19
2022-08-14T01:11:35.337Z,956.14
2022-08-14T01:17:04.704Z,956.10
2022-08-14T01:22:36.983Z,956.10
2022-08-14T01:28:08.414Z,956.04
2022-08-14T01:34:00.035Z,956.02
2022-08-14T01:39:12.508Z,955.94
2022-08-14T01:44:44.528Z,955.86
2022-08-14T01:50:15.953Z,955.80
2022-08-14T01:55:47.907Z,955.68
2022-08-14T02:01:20.021Z,955.59
2022-08-14T02:06:51.617Z,955.49
2022-08-14T02:12:26.473Z,955.43
2022-08-14T02:17:55.264Z,955.41
2022-08-14T02:23:32.061Z,955.35
2022-08-14T02:28:59.558Z,955.33
2022-08-14T02:34:31.161Z,955.25
2022-08-14T02:40:05.478Z,955.25
2022-08-14T02:45:38.747Z,955.17
2022-08-14T02:51:06.557Z,955.17
2022-08-14T02:57:15.477Z,955.19
2022-08-14T03:02:16.335Z,955.17
2022-08-14T03:07:41.600Z,955.12
2022-08-14T03:13:19.161Z,955.08
2022-08-14T03:18:45.256Z,955.04
2022-08-14T03:24:23.012Z,954.98
2022-08-14T03:29:49.698Z,954.94
2022-08-14T03:35:21.615Z,954.88
2022-08-14T03:40:53.325Z,954.78
2022-08-14T03:46:39.076Z,954.74
2022-08-14T03:51:58.171Z,954.74
2022-08-14T03:57:29.133Z,954.72
2022-08-14T04:03:01.050Z,954.70
2022-08-14T04:08:32.946Z,954.67
2022-08-14T04:14:04.578Z,954.63
2022-08-14T04:19:36.711Z,954.65
2022-08-14T04:25:08.759Z,954.67
2022-08-14T04:30:42.144Z,954.63
2022-08-14T04:36:15.829Z,954.63
2022-08-14T04:41:44.923Z,954.59
2022-08-14T04:47:16.574Z,954.49
2022-08-14T04:52:48.243Z,954.43
2022-08-14T04:58:21.746Z,954.43
2022-08-14T05:03:52.092Z,954.35
2022-08-14T05:09:24.035Z,954.33
2022-08-14T05:14:56.124Z,954.31
2022-08-14T05:21:04.408Z,954.25
2022-08-14T05:26:00.022Z,954.23
2022-08-14T05:31:39.739Z,954.23
2022-08-14T05:37:03.666Z,954.25
2022-08-14T05:42:35.504Z,954.27
2022-08-14T05:48:07.100Z,954.27
2022-08-14T05:53:42.293Z,954.31
2022-08-14T06:04:43.289Z,954.25
2022-08-14T06:10:15.635Z,954.23
2022-08-14T06:15:47.876Z,954.27
2022-08-14T06:21:20.039Z,954.27
2022-08-14T06:26:56.738Z,954.29
2022-08-14T06:32:37.419Z,954.27
2022-08-14T06:37:56.444Z,954.31
2022-08-14T06:43:31.779Z,954.33
2022-08-14T06:54:32.108Z,954.23
2022-08-14T07:00:03.798Z,954.19
2022-08-14T07:05:35.903Z,954.17
2022-08-14T07:11:07.630Z,954.14
2022-08-14T07:16:39.801Z,954.08
2022-08-14T07:22:17.803Z,954.02
2022-08-14T07:27:43.499Z,953.90
2022-08-14T07:33:15.525Z,953.82
2022-08-14T07:38:52.235Z,953.68
2022-08-14T07:44:29.283Z,953.60
2022-08-14T07:49:50.634Z,953.51
2022-08-14T07:55:22.753Z,953.45
2022-08-14T08:00:56.456Z,953.37
2022-08-14T08:06:26.128Z,953.29
2022-08-14T08:11:57.768Z,953.29
2022-08-14T08:17:34.686Z,953.25
2022-08-14T08:23:06.319Z,953.27
2022-08-14T08:28:32.986Z,953.29
2022-08-14T08:34:04.937Z,953.29
2022-08-14T08:45:12.007Z,953.25
2022-08-14T08:52:59.713Z,953.21
2022-08-14T08:58:31.362Z,953.19
2022-08-14T09:04:03.076Z,953.19
2022-08-14T09:09:34.829Z,953.17
2022-08-14T09:15:11.403Z,953.15
2022-08-14T09:20:37.848Z,953.13
2022-08-14T09:26:21.325Z,953.06
2022-08-14T09:37:13.788Z,953.06
2022-08-14T09:42:50.143Z,953.04
2022-08-14T09:48:17.042Z,953.04
2022-08-14T09:54:19.355Z,953.02
2022-08-14T09:59:20.422Z,953.02
2022-08-14T10:04:52.399Z,952.94
2022-08-14T10:10:24.190Z,952.90
2022-08-14T10:15:55.836Z,952.78
2022-08-14T10:21:27.741Z,952.72
2022-08-14T10:27:00.960Z,952.66
2022-08-14T10:32:40.037Z,952.66
2022-08-14T10:38:03.313Z,952.63
2022-08-14T10:43:34.994Z,952.57
2022-08-14T10:49:06.728Z,952.49
2022-08-14T10:54:40.210Z,952.45
2022-08-14T11:00:09.830Z,952.35
2022-08-14T11:05:41.774Z,952.27
2022-08-14T11:11:13.709Z,952.21
2022-08-14T11:16:53.241Z,952.17
2022-08-14T11:22:52.944Z,952.08
2022-08-14T11:27:49.080Z,951.98
2022-08-14T11:33:20.640Z,951.90
2022-08-14T11:38:53.879Z,951.80
2022-08-14T11:44:46.672Z,951.72
2022-08-14T11:49:56.000Z,951.64
2022-08-14T11:55:27.864Z,951.55
2022-08-14T12:00:59.622Z,951.55
2022-08-14T12:06:38.513Z,951.55
2022-08-14T12:12:03.032Z,951.51
2022-08-14T12:17:38.238Z,951.41
2022-08-14T12:23:06.696Z,951.29
2022-08-14T12:28:59.692Z,951.23
2022-08-14T12:34:10.505Z,951.21
2022-08-14T12:39:42.179Z,951.15
2022-08-14T12:45:17.256Z,951.10
2022-08-14T12:50:49.684Z,951.06
2022-08-14T12:56:22.732Z,951.04
2022-08-14T13:02:03.110Z,951.00
2022-08-14T13:07:21.037Z,950.94
2022-08-14T13:13:12.656Z,950.84
2022-08-14T13:18:24.927Z,950.78
2022-08-14T13:23:56.582Z,950.74
2022-08-14T13:29:28.396Z,950.68
2022-08-14T13:35:00.319Z,950.61
2022-08-14T13:40:32.882Z,950.53
2022-08-14T13:46:03.846Z,950.43
2022-08-14T13:51:35.377Z,950.31
2022-08-14T13:57:06.986Z,950.27
2022-08-14T14:02:38.700Z,950.19
2022-08-14T14:08:18.366Z,950.17
2022-08-14T14:19:14.085Z,950.06
2022-08-14T14:24:45.904Z,950.00
2022-08-14T14:30:51.989Z,949.98
2022-08-14T14:35:49.322Z,949.96
2022-08-14T14:43:41.768Z,949.86
2022-08-14T14:49:13.835Z,949.84
2022-08-14T14:54:45.456Z,949.82
2022-08-14T15:00:19.378Z,949.74
2022-08-14T15:05:49.229Z,949.70
2022-08-14T15:11:20.814Z,949.62
2022-08-14T15:16:52.645Z,949.62
2022-08-14T15:22:25.238Z,949.55
2022-08-14T15:27:56.203Z,949.51
2022-08-14T15:33:29.449Z,949.49
2022-08-14T15:39:00.897Z,949.47
2022-08-14T15:44:36.525Z,949.43
2022-08-14T15:50:04.446Z,949.39
2022-08-14T15:55:36.308Z,949.37
2022-08-14T16:01:08.012Z,949.33
2022-08-14T16:06:39.867Z,949.33
2022-08-14T16:12:11.760Z,949.29
2022-08-14T16:23:15.470Z,949.29
2022-08-14T16:28:47.033Z,949.23
2022-08-14T16:31:11.156Z,949.15
2022-08-14T16:36:50.721Z,949.17
2022-08-14T16:42:38.961Z,949.14
2022-08-14T16:47:47.757Z,949.15
2022-08-14T16:53:18.167Z,949.15
2022-08-14T16:58:50.132Z,949.15
2022-08-14T17:04:25.213Z,949.14
2022-08-14T17:09:54.699Z,949.08
2022-08-14T17:15:25.431Z,949.08
2022-08-14T18:11:47.327Z,949.17
2022-08-14T18:17:19.020Z,949.15
2022-08-14T18:22:50.397Z,949.19
2022-08-14T18:28:51.788Z,949.21
2022-08-14T18:33:54.215Z,949.27
2022-08-14T18:39:26.117Z,949.31
2022-08-14T18:44:57.798Z,949.37
2022-08-14T18:50:30.921Z,949.41
2022-08-14T18:56:09.736Z,949.45
2022-08-14T19:01:33.343Z,949.45
2022-08-14T19:07:04.983Z,949.51
2022-08-14T19:12:41.124Z,949.57
2022-08-14T19:18:13.882Z,949.59
2022-08-14T19:23:43.308Z,949.61
2022-08-14T19:29:10.909Z,949.59
2022-08-14T19:34:52.350Z,949.64
2022-08-14T19:40:19.306Z,949.62
2022-08-14T19:45:45.349Z,949.62
2022-08-14T19:51:17.154Z,949.64
2022-08-14T19:56:48.408Z,949.68
2022-08-14T20:04:46.353Z,949.72
2022-08-14T20:11:06.964Z,949.74
2022-08-14T20:15:47.152Z,949.76
2022-08-14T20:21:15.389Z,949.72
2022-08-14T20:26:47.405Z,949.78
2022-08-14T20:32:18.949Z,949.82
2022-08-14T20:34:51.221Z,949.92
2022-08-14T20:40:23.419Z,949.92
2022-08-14T20:45:45.501Z,949.90
2022-08-14T20:51:17.135Z,949.92
2022-08-14T20:56:48.928Z,949.92
2022-08-14T21:02:28.874Z,949.92
2022-08-14T21:07:53.290Z,950.00
2022-08-14T21:13:55.875Z,950.04
2022-08-14T21:18:55.397Z,950.10
2022-08-14T21:24:46.857Z,950.14
2022-08-14T21:29:59.373Z,950.17
2022-08-14T21:35:31.500Z,950.23
2022-08-14T21:41:03.050Z,950.25
2022-08-14T21:46:34.920Z,950.25
2022-08-14T21:52:48.855Z,950.19
2022-08-14T21:58:46.214Z,950.16
2022-08-14T22:03:10.230Z,950.16
2022-08-14T22:08:45.833Z,950.21
2022-08-14T22:14:25.150Z,950.23
2022-08-14T22:19:55.048Z,950.27
2022-08-14T22:25:17.438Z,950.31
2022-08-14T22:30:54.656Z,950.31
2022-08-14T22:36:25.223Z,950.31
2022-08-14T22:41:55.955Z,950.31
2022-08-14T22:47:24.972Z,950.27
2022-08-14T22:52:56.128Z,950.25
2022-08-14T22:58:30.131Z,950.23
2022-08-14T23:03:59.917Z,950.17
2022-08-14T23:09:35.317Z,950.14
2022-08-14T23:15:03.866Z,950.12
2022-08-14T23:22:55.151Z,950.10
2022-08-14T23:28:33.308Z,950.10
2022-08-14T23:33:58.511Z,950.12
2022-08-14T23:39:30.874Z,950.10
2022-08-14T23:45:02.133Z,950.04
2022-08-14T23:50:38.154Z,950.04
2022-08-14T23:56:05.918Z,950.02
